sensor_id;sensor_type;location;lat;lon;timestamp;temperature;humidity
796;DHT22;381;48.770;9.188;2023-06-26T00:03:52;23.30;65.60
796;DHT22;381;48.770;9.188;2023-06-26T00:08:56;23.30;66.00
796;DHT22;381;48.770;9.188;2023-06-26T00:13:59;23.20;65.60
796;DHT22;381;48.770;9.188;2023-06-26T00:19:02;23.20;65.60
796;DHT22;381;48.770;9.188;2023-06-26T00:24:05;23.20;66.10
796;DHT22;381;48.770;9.188;2023-06-26T00:29:07;23.10;65.70
796;DHT22;381;48.770;9.188;2023-06-26T00:34:09;23.00;66.90
796;DHT22;381;48.770;9.188;2023-06-26T00:39:13;23.00;65.80
796;DHT22;381;48.770;9.188;2023-06-26T00:44:16;23.00;65.20
796;DHT22;381;48.770;9.188;2023-06-26T00:49:18;22.90;66.10
796;DHT22;381;48.770;9.188;2023-06-26T00:54:22;22.80;66.90
796;DHT22;381;48.770;9.188;2023-06-26T00:59:24;22.80;66.90
796;DHT22;381;48.770;9.188;2023-06-26T01:04:26;22.70;66.00
796;DHT22;381;48.770;9.188;2023-06-26T01:09:35;22.70;67.40
796;DHT22;381;48.770;9.188;2023-06-26T01:14:37;22.70;66.20
796;DHT22;381;48.770;9.188;2023-06-26T01:19:39;22.60;66.40
796;DHT22;381;48.770;9.188;2023-06-26T01:24:48;22.60;66.20
796;DHT22;381;48.770;9.188;2023-06-26T01:29:57;22.60;67.30
796;DHT22;381;48.770;9.188;2023-06-26T01:35:00;22.60;68.00
796;DHT22;381;48.770;9.188;2023-06-26T01:40:05;22.60;68.20
796;DHT22;381;48.770;9.188;2023-06-26T01:45:14;22.60;67.20
796;DHT22;381;48.770;9.188;2023-06-26T01:50:24;22.60;67.00
796;DHT22;381;48.770;9.188;2023-06-26T01:55:32;22.50;67.80
796;DHT22;381;48.770;9.188;2023-06-26T02:00:38;22.50;67.80
796;DHT22;381;48.770;9.188;2023-06-26T02:05:40;22.50;68.90
796;DHT22;381;48.770;9.188;2023-06-26T02:10:42;22.40;69.10
796;DHT22;381;48.770;9.188;2023-06-26T02:15:46;22.40;69.20
796;DHT22;381;48.770;9.188;2023-06-26T02:20:48;22.40;69.00
796;DHT22;381;48.770;9.188;2023-06-26T02:25:50;22.30;68.30
796;DHT22;381;48.770;9.188;2023-06-26T02:30:54;22.30;68.40
796;DHT22;381;48.770;9.188;2023-06-26T02:35:56;22.20;69.40
796;DHT22;381;48.770;9.188;2023-06-26T02:40:58;22.20;69.80
796;DHT22;381;48.770;9.188;2023-06-26T02:46:02;22.20;69.90
796;DHT22;381;48.770;9.188;2023-06-26T02:51:05;22.10;70.30
796;DHT22;381;48.770;9.188;2023-06-26T02:56:07;22.10;70.10
796;DHT22;381;48.770;9.188;2023-06-26T03:01:11;22.10;70.30
796;DHT22;381;48.770;9.188;2023-06-26T03:06:15;22.00;70.00
796;DHT22;381;48.770;9.188;2023-06-26T03:11:19;22.00;70.50
796;DHT22;381;48.770;9.188;2023-06-26T03:16:22;22.00;70.90
796;DHT22;381;48.770;9.188;2023-06-26T03:21:25;22.00;71.50
796;DHT22;381;48.770;9.188;2023-06-26T03:26:28;22.00;71.40
796;DHT22;381;48.770;9.188;2023-06-26T03:31:34;22.00;70.80
796;DHT22;381;48.770;9.188;2023-06-26T03:36:37;22.00;71.20
796;DHT22;381;48.770;9.188;2023-06-26T03:41:39;22.00;70.90
796;DHT22;381;48.770;9.188;2023-06-26T03:46:43;22.00;69.90
796;DHT22;381;48.770;9.188;2023-06-26T03:51:45;22.00;71.40
796;DHT22;381;48.770;9.188;2023-06-26T03:56:48;22.00;72.00
796;DHT22;381;48.770;9.188;2023-06-26T04:01:52;22.00;72.30
796;DHT22;381;48.770;9.188;2023-06-26T04:06:54;22.00;71.60
796;DHT22;381;48.770;9.188;2023-06-26T04:11:56;22.00;72.20
796;DHT22;381;48.770;9.188;2023-06-26T04:17:00;22.00;72.50
796;DHT22;381;48.770;9.188;2023-06-26T04:22:04;22.00;72.70
796;DHT22;381;48.770;9.188;2023-06-26T04:27:06;22.10;73.10
796;DHT22;381;48.770;9.188;2023-06-26T04:32:09;22.00;73.30
796;DHT22;381;48.770;9.188;2023-06-26T04:37:12;22.10;73.20
796;DHT22;381;48.770;9.188;2023-06-26T04:42:18;22.10;73.40
796;DHT22;381;48.770;9.188;2023-06-26T04:47:23;22.10;74.20
796;DHT22;381;48.770;9.188;2023-06-26T04:52:25;22.10;73.70
796;DHT22;381;48.770;9.188;2023-06-26T04:57:28;22.10;73.70
796;DHT22;381;48.770;9.188;2023-06-26T05:02:31;22.20;73.80
796;DHT22;381;48.770;9.188;2023-06-26T05:07:33;22.20;73.00
796;DHT22;381;48.770;9.188;2023-06-26T05:12:35;22.30;73.20
796;DHT22;381;48.770;9.188;2023-06-26T05:17:39;22.30;73.90
796;DHT22;381;48.770;9.188;2023-06-26T05:22:41;22.40;73.50
796;DHT22;381;48.770;9.188;2023-06-26T05:27:44;22.40;74.10
796;DHT22;381;48.770;9.188;2023-06-26T05:32:48;22.50;74.10
796;DHT22;381;48.770;9.188;2023-06-26T05:37:51;22.60;74.00
796;DHT22;381;48.770;9.188;2023-06-26T05:42:54;22.70;75.00
796;DHT22;381;48.770;9.188;2023-06-26T05:47:57;22.70;74.10
796;DHT22;381;48.770;9.188;2023-06-26T05:53:00;22.80;73.50
796;DHT22;381;48.770;9.188;2023-06-26T05:58:04;22.90;72.90
796;DHT22;381;48.770;9.188;2023-06-26T06:03:09;23.00;73.00
796;DHT22;381;48.770;9.188;2023-06-26T06:08:11;23.00;72.60
796;DHT22;381;48.770;9.188;2023-06-26T06:13:13;23.10;72.30
796;DHT22;381;48.770;9.188;2023-06-26T06:18:17;23.20;71.50
796;DHT22;381;48.770;9.188;2023-06-26T06:23:19;23.40;71.80
796;DHT22;381;48.770;9.188;2023-06-26T06:28:21;23.40;72.30
796;DHT22;381;48.770;9.188;2023-06-26T06:33:25;23.60;74.20
796;DHT22;381;48.770;9.188;2023-06-26T06:38:27;23.70;73.90
796;DHT22;381;48.770;9.188;2023-06-26T06:43:29;23.90;75.70
796;DHT22;381;48.770;9.188;2023-06-26T06:48:32;24.10;74.10
796;DHT22;381;48.770;9.188;2023-06-26T06:53:34;24.50;75.20
796;DHT22;381;48.770;9.188;2023-06-26T06:58:36;24.80;74.40
796;DHT22;381;48.770;9.188;2023-06-26T07:03:40;25.20;73.80
796;DHT22;381;48.770;9.188;2023-06-26T07:08:42;25.50;71.70
796;DHT22;381;48.770;9.188;2023-06-26T07:13:44;25.80;70.20
796;DHT22;381;48.770;9.188;2023-06-26T07:18:47;26.10;69.00
796;DHT22;381;48.770;9.188;2023-06-26T07:23:50;26.60;68.50
796;DHT22;381;48.770;9.188;2023-06-26T07:28:52;27.10;67.90
796;DHT22;381;48.770;9.188;2023-06-26T07:33:59;27.70;66.70
796;DHT22;381;48.770;9.188;2023-06-26T07:39:01;28.30;62.60
796;DHT22;381;48.770;9.188;2023-06-26T07:44:03;28.90;63.30
796;DHT22;381;48.770;9.188;2023-06-26T07:49:07;29.50;59.90
796;DHT22;381;48.770;9.188;2023-06-26T07:54:09;30.00;58.10
796;DHT22;381;48.770;9.188;2023-06-26T07:59:11;30.50;58.50
796;DHT22;381;48.770;9.188;2023-06-26T08:04:17;31.00;58.00
796;DHT22;381;48.770;9.188;2023-06-26T08:09:20;31.50;57.40
796;DHT22;381;48.770;9.188;2023-06-26T08:14:23;32.00;55.90
796;DHT22;381;48.770;9.188;2023-06-26T08:19:26;32.40;55.00
796;DHT22;381;48.770;9.188;2023-06-26T08:24:28;32.80;54.40
796;DHT22;381;48.770;9.188;2023-06-26T08:29:30;33.10;53.40
796;DHT22;381;48.770;9.188;2023-06-26T08:34:34;33.50;52.70
796;DHT22;381;48.770;9.188;2023-06-26T08:39:36;33.80;51.90
796;DHT22;381;48.770;9.188;2023-06-26T08:44:38;34.00;50.40
796;DHT22;381;48.770;9.188;2023-06-26T08:49:51;34.30;51.60
796;DHT22;381;48.770;9.188;2023-06-26T08:54:56;34.50;50.80
796;DHT22;381;48.770;9.188;2023-06-26T08:59:59;34.60;50.20
796;DHT22;381;48.770;9.188;2023-06-26T09:05:03;34.80;49.70
796;DHT22;381;48.770;9.188;2023-06-26T09:10:08;35.10;49.50
796;DHT22;381;48.770;9.188;2023-06-26T09:15:14;35.30;48.40
796;DHT22;381;48.770;9.188;2023-06-26T09:20:19;35.50;47.80
796;DHT22;381;48.770;9.188;2023-06-26T09:25:24;35.70;48.00
796;DHT22;381;48.770;9.188;2023-06-26T09:30:26;35.60;47.00
796;DHT22;381;48.770;9.188;2023-06-26T09:35:29;35.10;47.80
796;DHT22;381;48.770;9.188;2023-06-26T09:40:32;34.80;48.40
796;DHT22;381;48.770;9.188;2023-06-26T09:45:35;34.50;48.80
796;DHT22;381;48.770;9.188;2023-06-26T09:50:42;34.20;50.10
796;DHT22;381;48.770;9.188;2023-06-26T09:55:44;34.00;50.40
796;DHT22;381;48.770;9.188;2023-06-26T10:00:47;33.60;48.70
796;DHT22;381;48.770;9.188;2023-06-26T10:05:52;34.50;49.60
796;DHT22;381;48.770;9.188;2023-06-26T10:10:54;35.00;49.00
796;DHT22;381;48.770;9.188;2023-06-26T10:15:58;35.00;48.50
796;DHT22;381;48.770;9.188;2023-06-26T10:21:02;34.90;48.00
796;DHT22;381;48.770;9.188;2023-06-26T10:26:06;34.60;49.50
796;DHT22;381;48.770;9.188;2023-06-26T10:31:09;34.10;49.60
796;DHT22;381;48.770;9.188;2023-06-26T10:36:17;33.60;50.40
796;DHT22;381;48.770;9.188;2023-06-26T10:41:21;33.00;51.50
796;DHT22;381;48.770;9.188;2023-06-26T10:46:24;32.50;52.50
796;DHT22;381;48.770;9.188;2023-06-26T10:51:28;32.10;53.30
796;DHT22;381;48.770;9.188;2023-06-26T10:56:42;31.70;53.30
796;DHT22;381;48.770;9.188;2023-06-26T11:01:46;31.30;52.90
796;DHT22;381;48.770;9.188;2023-06-26T11:07:16;31.10;54.90
796;DHT22;381;48.770;9.188;2023-06-26T11:12:34;30.90;54.70
796;DHT22;381;48.770;9.188;2023-06-26T11:17:37;30.80;55.20
796;DHT22;381;48.770;9.188;2023-06-26T11:22:42;30.60;55.30
796;DHT22;381;48.770;9.188;2023-06-26T11:27:44;30.70;54.90
796;DHT22;381;48.770;9.188;2023-06-26T11:32:47;30.80;55.10
796;DHT22;381;48.770;9.188;2023-06-26T11:37:50;30.90;54.90
796;DHT22;381;48.770;9.188;2023-06-26T11:42:58;30.80;55.10
796;DHT22;381;48.770;9.188;2023-06-26T11:48:00;30.70;55.60
796;DHT22;381;48.770;9.188;2023-06-26T11:53:04;30.60;55.70
796;DHT22;381;48.770;9.188;2023-06-26T11:58:08;30.50;55.60
796;DHT22;381;48.770;9.188;2023-06-26T12:03:10;30.30;56.00
796;DHT22;381;48.770;9.188;2023-06-26T12:08:14;30.30;56.40
796;DHT22;381;48.770;9.188;2023-06-26T12:13:17;30.10;57.10
796;DHT22;381;48.770;9.188;2023-06-26T12:18:19;30.10;58.90
796;DHT22;381;48.770;9.188;2023-06-26T12:23:23;30.20;59.30
796;DHT22;381;48.770;9.188;2023-06-26T12:28:25;30.30;59.60
796;DHT22;381;48.770;9.188;2023-06-26T12:33:27;30.20;59.70
796;DHT22;381;48.770;9.188;2023-06-26T12:38:34;30.10;59.70
796;DHT22;381;48.770;9.188;2023-06-26T12:43:38;30.10;59.90
796;DHT22;381;48.770;9.188;2023-06-26T12:48:42;30.00;60.20
796;DHT22;381;48.770;9.188;2023-06-26T12:53:48;30.00;60.00
796;DHT22;381;48.770;9.188;2023-06-26T12:58:50;29.90;59.50
796;DHT22;381;48.770;9.188;2023-06-26T13:03:52;29.80;60.30
796;DHT22;381;48.770;9.188;2023-06-26T13:08:58;29.70;60.50
796;DHT22;381;48.770;9.188;2023-06-26T13:14:00;29.60;60.70
796;DHT22;381;48.770;9.188;2023-06-26T13:19:02;29.60;60.30
796;DHT22;381;48.770;9.188;2023-06-26T13:24:06;29.70;59.60
796;DHT22;381;48.770;9.188;2023-06-26T13:29:08;29.70;59.80
796;DHT22;381;48.770;9.188;2023-06-26T13:34:20;29.60;60.10
796;DHT22;381;48.770;9.188;2023-06-26T13:39:24;29.70;59.20
796;DHT22;381;48.770;9.188;2023-06-26T13:44:26;29.60;59.60
796;DHT22;381;48.770;9.188;2023-06-26T13:49:28;29.60;58.70
796;DHT22;381;48.770;9.188;2023-06-26T13:54:32;29.60;58.80
796;DHT22;381;48.770;9.188;2023-06-26T13:59:36;29.60;57.60
796;DHT22;381;48.770;9.188;2023-06-26T14:04:38;29.50;57.40
796;DHT22;381;48.770;9.188;2023-06-26T14:09:42;29.40;57.80
796;DHT22;381;48.770;9.188;2023-06-26T14:14:44;29.40;55.70
796;DHT22;381;48.770;9.188;2023-06-26T14:19:46;29.40;56.20
796;DHT22;381;48.770;9.188;2023-06-26T14:24:50;29.40;56.10
796;DHT22;381;48.770;9.188;2023-06-26T14:29:52;29.30;55.80
796;DHT22;381;48.770;9.188;2023-06-26T14:34:54;29.30;55.00
796;DHT22;381;48.770;9.188;2023-06-26T14:39:58;29.30;55.30
796;DHT22;381;48.770;9.188;2023-06-26T14:45:00;29.20;54.80
796;DHT22;381;48.770;9.188;2023-06-26T14:50:03;29.20;55.20
796;DHT22;381;48.770;9.188;2023-06-26T14:55:07;29.20;55.20
796;DHT22;381;48.770;9.188;2023-06-26T15:00:10;29.10;55.30
796;DHT22;381;48.770;9.188;2023-06-26T15:05:13;29.10;54.60
796;DHT22;381;48.770;9.188;2023-06-26T15:10:16;29.00;55.30
796;DHT22;381;48.770;9.188;2023-06-26T15:15:19;29.00;55.50
796;DHT22;381;48.770;9.188;2023-06-26T15:20:21;29.00;55.70
796;DHT22;381;48.770;9.188;2023-06-26T15:25:25;28.90;55.60
796;DHT22;381;48.770;9.188;2023-06-26T15:30:29;28.90;56.20
796;DHT22;381;48.770;9.188;2023-06-26T15:35:31;28.90;56.20
796;DHT22;381;48.770;9.188;2023-06-26T15:40:34;28.80;55.90
796;DHT22;381;48.770;9.188;2023-06-26T15:45:36;28.80;54.50
796;DHT22;381;48.770;9.188;2023-06-26T15:50:38;28.80;55.10
796;DHT22;381;48.770;9.188;2023-06-26T15:55:42;28.70;55.50
796;DHT22;381;48.770;9.188;2023-06-26T16:00:44;28.70;55.40
796;DHT22;381;48.770;9.188;2023-06-26T16:05:46;28.70;55.20
796;DHT22;381;48.770;9.188;2023-06-26T16:10:50;28.60;55.50
796;DHT22;381;48.770;9.188;2023-06-26T16:15:52;28.50;56.30
796;DHT22;381;48.770;9.188;2023-06-26T16:20:54;28.50;56.00
796;DHT22;381;48.770;9.188;2023-06-26T16:25:58;28.60;56.30
796;DHT22;381;48.770;9.188;2023-06-26T16:31:00;28.60;55.50
796;DHT22;381;48.770;9.188;2023-06-26T16:36:02;28.60;55.10
796;DHT22;381;48.770;9.188;2023-06-26T16:41:06;28.50;55.10
796;DHT22;381;48.770;9.188;2023-06-26T16:46:08;28.40;53.60
796;DHT22;381;48.770;9.188;2023-06-26T16:51:47;28.30;54.40
796;DHT22;381;48.770;9.188;2023-06-26T16:57:35;28.30;54.10
796;DHT22;381;48.770;9.188;2023-06-26T17:03:31;28.20;53.90
796;DHT22;381;48.770;9.188;2023-06-26T17:09:28;28.10;51.50
796;DHT22;381;48.770;9.188;2023-06-26T17:14:57;27.90;52.30
796;DHT22;381;48.770;9.188;2023-06-26T17:20:12;27.70;49.90
796;DHT22;381;48.770;9.188;2023-06-26T17:25:22;27.60;49.80
796;DHT22;381;48.770;9.188;2023-06-26T17:31:24;27.50;49.50
796;DHT22;381;48.770;9.188;2023-06-26T18:01:23;27.10;47.70
796;DHT22;381;48.770;9.188;2023-06-26T18:40:32;26.20;47.80
796;DHT22;381;48.770;9.188;2023-06-26T18:46:35;26.10;48.00
796;DHT22;381;48.770;9.188;2023-06-26T19:43:29;25.10;51.10
796;DHT22;381;48.770;9.188;2023-06-26T19:55:11;25.00;51.20
796;DHT22;381;48.770;9.188;2023-06-26T20:26:44;24.70;51.80
796;DHT22;381;48.770;9.188;2023-06-26T20:33:10;24.60;52.90
796;DHT22;381;48.770;9.188;2023-06-26T20:40:26;24.60;52.20
796;DHT22;381;48.770;9.188;2023-06-26T22:51:46;23.70;56.70
796;DHT22;381;48.770;9.188;2023-06-26T22:56:49;23.60;56.80
796;DHT22;381;48.770;9.188;2023-06-26T23:01:51;23.60;56.40
796;DHT22;381;48.770;9.188;2023-06-26T23:06:55;23.60;57.20
796;DHT22;381;48.770;9.188;2023-06-26T23:11:57;23.50;57.70
796;DHT22;381;48.770;9.188;2023-06-26T23:16:59;23.50;57.80
796;DHT22;381;48.770;9.188;2023-06-26T23:22:06;23.50;56.70
796;DHT22;381;48.770;9.188;2023-06-26T23:27:10;23.50;56.60
796;DHT22;381;48.770;9.188;2023-06-26T23:32:12;23.50;57.80
796;DHT22;381;48.770;9.188;2023-06-26T23:37:15;23.50;57.90
796;DHT22;381;48.770;9.188;2023-06-26T23:42:25;23.40;57.40
796;DHT22;381;48.770;9.188;2023-06-26T23:47:28;23.40;58.30
796;DHT22;381;48.770;9.188;2023-06-26T23:52:33;23.30;57.40
796;DHT22;381;48.770;9.188;2023-06-26T23:57:35;23.30;58.00
